createdAt,value
2017-04-29T00:02:03.698Z,41.9
2017-04-29T00:07:03.473Z,42.1
2017-04-29T00:12:03.472Z,42.1
2017-04-29T00:17:03.704Z,42.1
2017-04-29T00:22:03.720Z,42.1
2017-04-29T00:27:03.516Z,42.1
2017-04-29T00:32:03.499Z,42.1
2017-04-29T00:37:03.501Z,42.2
2017-04-29T00:42:03.449Z,42.1
2017-04-29T00:47:03.415Z,42.1
2017-04-29T00:52:03.373Z,42.1
2017-04-29T00:57:03.440Z,42.1
2017-04-29T01:02:03.581Z,42.3
2017-04-29T01:07:03.418Z,42.4
2017-04-29T01:12:03.515Z,42.4
2017-04-29T01:17:03.426Z,42.4
2017-04-29T01:22:03.945Z,42.5
2017-04-29T01:27:03.708Z,42.5
2017-04-29T01:32:03.494Z,42.4
2017-04-29T01:37:03.682Z,42.6
2017-04-29T01:42:03.425Z,42.7
2017-04-29T01:47:03.244Z,42.6
2017-04-29T01:52:03.621Z,42.7
2017-04-29T01:57:03.578Z,42.7
2017-04-29T02:02:03.528Z,42.9
2017-04-29T02:07:03.359Z,42.9
2017-04-29T02:12:03.421Z,43.0
2017-04-29T02:17:03.485Z,43.1
2017-04-29T02:22:03.533Z,43.1
2017-04-29T02:27:03.470Z,43.1
2017-04-29T02:32:03.272Z,43.2
2017-04-29T02:37:03.326Z,43.1
2017-04-29T02:42:03.540Z,43.1
2017-04-29T02:47:03.824Z,43.1
2017-04-29T02:52:03.407Z,43.2
2017-04-29T02:57:03.654Z,43.2
2017-04-29T03:02:03.981Z,43.1
2017-04-29T03:07:03.197Z,43.2
2017-04-29T03:12:03.659Z,43.2
2017-04-29T03:17:04.137Z,43.2
2017-04-29T03:22:03.377Z,43.3
2017-04-29T03:27:03.672Z,43.2
2017-04-29T03:32:11.444Z,43.1
2017-04-29T03:37:03.349Z,43.1
2017-04-29T03:42:03.702Z,43.1
2017-04-29T03:47:26.150Z,43.0
2017-04-29T03:52:03.788Z,42.9
2017-04-29T03:57:03.234Z,43.0
2017-04-29T04:02:25.150Z,43.1
2017-04-29T04:07:03.647Z,43.1
2017-04-29T04:12:03.360Z,43.0
2017-04-29T04:17:25.154Z,43.1
2017-04-29T04:22:03.864Z,43.2
2017-04-29T04:27:03.347Z,43.1
2017-04-29T04:32:22.060Z,43.1
2017-04-29T04:37:03.948Z,42.9
2017-04-29T04:42:03.282Z,43.0
2017-04-29T04:47:28.460Z,42.9
2017-04-29T04:52:03.094Z,42.8
2017-04-29T04:57:03.486Z,42.5
2017-04-29T05:02:28.399Z,42.1
2017-04-29T05:07:03.544Z,41.8
2017-04-29T05:12:03.972Z,41.8
2017-04-29T05:17:22.923Z,41.7
2017-04-29T05:22:03.945Z,41.5
2017-04-29T05:27:03.248Z,41.5
2017-04-29T05:32:30.381Z,41.5
2017-04-29T05:37:03.706Z,41.5
2017-04-29T05:42:03.156Z,41.6
2017-04-29T05:47:28.645Z,41.4
2017-04-29T05:52:03.041Z,41.3
2017-04-29T05:57:03.489Z,41.4
2017-04-29T06:02:22.117Z,41.6
2017-04-29T06:07:03.089Z,41.5
2017-04-29T06:12:03.684Z,41.6
2017-04-29T06:17:28.877Z,41.6
2017-04-29T06:22:03.127Z,41.8
2017-04-29T06:27:03.522Z,41.8
2017-04-29T06:32:28.317Z,42.1
2017-04-29T06:37:03.803Z,42.0
2017-04-29T06:42:03.172Z,42.3
2017-04-29T06:47:28.780Z,42.3
2017-04-29T06:52:03.404Z,42.3
2017-04-29T06:57:03.720Z,42.3
2017-04-29T07:02:23.889Z,42.4
2017-04-29T07:07:03.595Z,42.7
2017-04-29T07:12:03.089Z,42.6
2017-04-29T07:17:24.245Z,42.7
2017-04-29T07:22:03.694Z,42.9
2017-04-29T07:27:03.150Z,42.9
2017-04-29T07:32:25.504Z,43.0
2017-04-29T07:37:03.767Z,43.1
2017-04-29T07:42:03.105Z,43.2
2017-04-29T07:47:28.454Z,43.1
2017-04-29T07:52:03.769Z,43.3
2017-04-29T07:57:03.152Z,43.4
2017-04-29T08:02:28.044Z,43.3
2017-04-29T08:07:04.220Z,43.3
2017-04-29T08:12:03.713Z,43.1
2017-04-29T08:17:24.100Z,42.8
2017-04-29T08:22:03.158Z,42.4
2017-04-29T08:27:03.542Z,42.4
2017-04-29T08:32:24.387Z,42.4
2017-04-29T08:37:03.817Z,42.7
2017-04-29T08:42:03.163Z,43.0
2017-04-29T08:47:29.029Z,43.7
2017-04-29T08:52:03.391Z,44.1
2017-04-29T08:57:03.710Z,44.6
2017-04-29T09:02:27.681Z,45.1
2017-04-29T09:12:08.514Z,44.8
2017-04-29T09:17:29.473Z,44.8
2017-04-29T09:22:03.948Z,44.8
2017-04-29T09:27:03.355Z,44.4
2017-04-29T09:32:24.153Z,44.1
2017-04-29T09:37:03.359Z,44.0
2017-04-29T09:42:03.739Z,44.0
2017-04-29T09:52:03.279Z,44.4
2017-04-29T09:57:03.662Z,44.2
2017-04-29T10:02:23.139Z,44.4
2017-04-29T10:07:03.759Z,44.6
2017-04-29T10:12:03.340Z,45.0
2017-04-29T10:17:25.597Z,45.0
2017-04-29T10:22:03.131Z,44.8
2017-04-29T10:27:03.234Z,44.8
2017-04-29T10:32:23.588Z,44.0
2017-04-29T10:37:03.247Z,42.9
2017-04-29T10:42:03.774Z,43.1
2017-04-29T10:47:24.937Z,44.1
2017-04-29T10:52:03.080Z,44.0
2017-04-29T10:57:03.575Z,44.0
2017-04-29T11:02:29.351Z,44.8
2017-04-29T11:07:03.487Z,45.2
2017-04-29T11:12:03.889Z,45.1
2017-04-29T11:17:23.799Z,44.1
2017-04-29T11:22:03.499Z,44.1
2017-04-29T11:27:03.830Z,44.1
2017-04-29T11:32:27.496Z,44.2
2017-04-29T11:37:03.807Z,44.5
2017-04-29T11:42:03.669Z,43.7
2017-04-29T11:47:23.838Z,42.8
2017-04-29T11:52:03.348Z,42.8
2017-04-29T11:57:03.725Z,44.3
2017-04-29T12:02:23.513Z,43.9
2017-04-29T12:07:03.677Z,44.7
2017-04-29T12:12:03.171Z,44.8
2017-04-29T12:17:28.866Z,45.2
2017-04-29T12:22:03.741Z,45.1
2017-04-29T12:27:03.138Z,45.0
2017-04-29T12:32:28.956Z,44.9
2017-04-29T12:37:03.503Z,44.6
2017-04-29T12:42:03.775Z,44.2
2017-04-29T12:47:24.982Z,43.9
2017-04-29T12:52:03.236Z,43.9
2017-04-29T12:57:03.679Z,43.9
2017-04-29T13:02:23.307Z,44.5
2017-04-29T13:07:03.373Z,43.9
2017-04-29T13:12:03.883Z,44.0
2017-04-29T13:17:28.107Z,44.0
2017-04-29T13:22:03.828Z,43.7
2017-04-29T13:27:03.334Z,43.7
2017-04-29T13:32:29.008Z,43.7
2017-04-29T13:37:03.158Z,43.5
2017-04-29T13:42:03.584Z,42.4
2017-04-29T13:47:24.216Z,42.7
2017-04-29T13:52:03.647Z,42.7
2017-04-29T13:57:03.415Z,42.9
2017-04-29T14:02:27.670Z,43.4
2017-04-29T14:07:03.386Z,43.4
2017-04-29T14:12:03.945Z,44.0
2017-04-29T14:17:24.225Z,44.3
2017-04-29T14:22:03.160Z,43.7
2017-04-29T14:27:03.681Z,42.9
2017-04-29T14:32:23.198Z,42.2
2017-04-29T14:37:03.689Z,41.6
2017-04-29T14:42:03.924Z,41.6
2017-04-29T14:47:25.184Z,37.6
2017-04-29T14:52:03.027Z,37.6
2017-04-29T14:57:03.495Z,34.7
2017-04-29T15:02:23.812Z,33.5
2017-04-29T15:07:03.816Z,39.6
2017-04-29T15:12:03.376Z,39.5
2017-04-29T15:17:24.417Z,42.7
2017-04-29T15:22:03.613Z,41.8
2017-04-29T15:27:03.876Z,41.3
2017-04-29T15:32:27.748Z,38.0
2017-04-29T15:37:02.999Z,39.6
2017-04-29T15:42:03.128Z,38.6
2017-04-29T15:47:27.959Z,33.2
2017-04-29T15:52:03.542Z,34.4
2017-04-29T15:57:03.782Z,34.4
2017-04-29T16:02:25.816Z,31.6
2017-04-29T16:07:03.983Z,35.9
2017-04-29T16:12:03.430Z,35.8
2017-04-29T16:17:22.716Z,33.1
2017-04-29T16:22:03.171Z,33.1
2017-04-29T16:27:03.503Z,34.9
2017-04-29T16:32:21.789Z,34.9
2017-04-29T16:37:03.106Z,37.7
2017-04-29T16:42:03.504Z,37.8
2017-04-29T16:47:19.402Z,41.9
2017-04-29T16:52:03.479Z,43.9
2017-04-29T16:57:03.594Z,43.9
2017-04-29T17:02:21.185Z,44.8
2017-04-29T17:07:03.592Z,45.9
2017-04-29T17:12:03.981Z,45.8
2017-04-29T17:17:22.462Z,43.3
2017-04-29T17:22:06.536Z,41.2
2017-04-29T17:27:03.258Z,40.6
2017-04-29T17:32:22.117Z,42.4
2017-04-29T17:37:03.750Z,44.2
2017-04-29T17:42:03.077Z,44.2
2017-04-29T17:47:27.303Z,44.0
2017-04-29T17:52:03.318Z,45.2
2017-04-29T17:57:03.729Z,45.2
2017-04-29T18:02:27.589Z,45.8
2017-04-29T18:07:03.515Z,45.9
2017-04-29T18:12:03.906Z,46.1
2017-04-29T18:17:26.935Z,46.2
2017-04-29T18:22:03.904Z,46.7
2017-04-29T18:27:03.209Z,46.6
2017-04-29T18:32:27.359Z,46.5
2017-04-29T18:37:03.370Z,46.6
2017-04-29T18:42:03.750Z,46.7
2017-04-29T18:47:24.995Z,46.5
2017-04-29T18:52:03.765Z,46.5
2017-04-29T18:57:03.092Z,46.5
2017-04-29T19:07:03.773Z,46.1
2017-04-29T19:12:03.351Z,45.6
2017-04-29T19:17:14.375Z,45.6
2017-04-29T19:22:03.494Z,45.5
2017-04-29T19:27:03.794Z,45.3
2017-04-29T19:32:07.551Z,45.2
2017-04-29T19:37:03.803Z,45.1
2017-04-29T19:42:03.246Z,45.0
2017-04-29T19:47:03.756Z,45.0
2017-04-29T19:52:03.783Z,44.7
2017-04-29T19:57:03.138Z,44.7
2017-04-29T20:02:03.518Z,44.6
2017-04-29T20:07:03.841Z,44.6
2017-04-29T20:12:03.384Z,44.5
2017-04-29T20:17:03.642Z,44.4
2017-04-29T20:22:03.081Z,44.5
2017-04-29T20:27:03.391Z,44.3
2017-04-29T20:32:03.979Z,44.3
2017-04-29T20:37:03.969Z,44.2
2017-04-29T20:42:03.257Z,44.3
2017-04-29T20:47:03.493Z,44.4
2017-04-29T20:52:03.789Z,44.4
2017-04-29T20:57:03.062Z,44.4
2017-04-29T21:02:03.420Z,44.3
2017-04-29T21:07:03.764Z,44.4
2017-04-29T21:12:03.291Z,44.3
2017-04-29T21:17:04.923Z,44.2
2017-04-29T21:22:03.882Z,44.3
2017-04-29T21:27:03.171Z,44.3
2017-04-29T21:32:03.469Z,44.2
2017-04-29T21:37:03.624Z,44.1
2017-04-29T21:42:03.844Z,44.1
2017-04-29T21:47:03.221Z,44.1
2017-04-29T21:52:03.703Z,44.1
2017-04-29T21:57:03.009Z,44.0
2017-04-29T22:02:03.489Z,44.0
2017-04-29T22:07:03.555Z,44.0
2017-04-29T22:12:03.909Z,43.9
2017-04-29T22:22:04.079Z,43.9
2017-04-29T22:27:03.466Z,44.0
2017-04-29T22:32:03.348Z,43.8
2017-04-29T22:37:03.275Z,43.8
2017-04-29T22:42:03.025Z,43.8
2017-04-29T22:47:03.867Z,43.7
2017-04-29T22:52:03.436Z,43.6
2017-04-29T22:57:03.502Z,43.6
2017-04-29T23:02:03.428Z,43.6
2017-04-29T23:07:03.455Z,43.6
2017-04-29T23:12:03.557Z,43.4
2017-04-29T23:17:03.782Z,43.4
2017-04-29T23:22:03.387Z,43.3
2017-04-29T23:27:03.196Z,43.2
2017-04-29T23:32:03.194Z,43.1
2017-04-29T23:37:03.387Z,43.3
2017-04-29T23:42:03.894Z,43.1
2017-04-29T23:47:03.760Z,43.1
2017-04-29T23:52:03.475Z,43.1
2017-04-29T23:57:03.424Z,43.0
